Time;durP1;ratioP1;P1;durP2;ratioP2;P2;SDS_P1;SDS_P2;PMS_P1;PMS_P2;Temp;Humidity;BMP_temperature;BMP_pressure;BME280_temperature;BME280_humidity;BME280_pressure;Samples;Min_cycle;Max_cycle;Signal;HPM_P1;HPM_P2
2023/12/26 00:00:26;;;;;;;;;;;9.90;88.00;;;;;;5106230;28;19924;-62
2023/12/26 00:02:52;;;;;;;;;;;9.90;88.00;;;;;;5103080;28;19924;-63
2023/12/26 00:05:26;;;;;;;;;;;9.90;88.00;;;;;;5107001;27;20327;-63
2023/12/26 00:07:59;;;;;;;;;;;9.90;88.00;;;;;;5088896;28;19928;-63
2023/12/26 00:10:26;;;;;;;;;;;9.90;88.00;;;;;;5098557;27;20006;-63
2023/12/26 00:13:01;;;;;;;;;;;9.90;88.00;;;;;;5105547;28;20355;-63
2023/12/26 00:15:34;;;;;;;;;;;9.90;88.00;;;;;;5107510;28;19928;-62
2023/12/26 00:18:07;;;;;;;;;;;9.90;88.00;;;;;;5104951;28;19939;-62
2023/12/26 00:20:43;;;;;;;;;;;10.00;88.00;;;;;;5109941;27;19928;-62
2023/12/26 00:23:16;;;;;;;;;;;9.90;87.90;;;;;;5111046;28;19923;-63
2023/12/26 00:25:49;;;;;;;;;;;10.00;87.90;;;;;;5108872;28;19932;-63
2023/12/26 00:28:23;;;;;;;;;;;9.90;87.90;;;;;;5111460;28;19928;-63
2023/12/26 00:30:57;;;;;;;;;;;9.90;87.90;;;;;;5111401;28;19927;-63
2023/12/26 00:33:30;;;;;;;;;;;10.00;87.90;;;;;;5111811;27;19942;-62
2023/12/26 00:36:03;;;;;;;;;;;9.90;87.90;;;;;;5111950;28;19939;-63
2023/12/26 00:38:37;;;;;;;;;;;9.90;87.80;;;;;;5116559;28;19938;-62
2023/12/26 00:41:11;;;;;;;;;;;9.90;87.90;;;;;;5085505;28;19924;-63
2023/12/26 00:43:45;;;;;;;;;;;9.90;87.80;;;;;;5089918;28;19930;-63
2023/12/26 00:46:19;;;;;;;;;;;10.00;87.80;;;;;;5086343;28;19928;-62
2023/12/26 00:48:52;;;;;;;;;;;9.90;87.80;;;;;;5105742;28;19924;-62
2023/12/26 00:51:25;;;;;;;;;;;9.90;87.80;;;;;;5085738;28;19928;-63
2023/12/26 00:53:58;;;;;;;;;;;9.90;87.80;;;;;;5089732;28;19928;-63
2023/12/26 00:56:31;;;;;;;;;;;9.90;87.80;;;;;;5090739;28;19969;-62
2023/12/26 00:59:05;;;;;;;;;;;9.90;87.70;;;;;;5090831;28;20896;-63
2023/12/26 01:01:39;;;;;;;;;;;10.00;87.80;;;;;;5091235;28;19928;-63
2023/12/26 01:04:12;;;;;;;;;;;10.00;87.80;;;;;;5110505;28;19928;-62
2023/12/26 01:06:46;;;;;;;;;;;9.90;87.80;;;;;;5110684;28;19931;-63
2023/12/26 01:09:19;;;;;;;;;;;10.00;87.80;;;;;;5112653;28;19927;-63
2023/12/26 01:11:52;;;;;;;;;;;9.90;87.80;;;;;;5111071;28;20425;-63
2023/12/26 01:14:26;;;;;;;;;;;9.90;87.80;;;;;;5109674;27;20362;-64
2023/12/26 01:17:00;;;;;;;;;;;9.90;87.80;;;;;;5109240;28;19927;-62
2023/12/26 01:19:33;;;;;;;;;;;9.90;87.80;;;;;;5089740;28;19936;-64
2023/12/26 01:22:06;;;;;;;;;;;9.90;87.70;;;;;;5110024;28;20278;-62
2023/12/26 01:24:39;;;;;;;;;;;9.90;87.80;;;;;;5107081;28;19999;-62
2023/12/26 01:27:13;;;;;;;;;;;9.90;87.70;;;;;;5111042;28;19984;-64
2023/12/26 01:29:49;;;;;;;;;;;9.90;87.70;;;;;;5089922;28;20434;-63
2023/12/26 01:32:22;;;;;;;;;;;9.90;87.60;;;;;;5084587;28;19928;-62
2023/12/26 01:34:55;;;;;;;;;;;10.00;87.50;;;;;;5109664;28;19928;-63
2023/12/26 01:37:28;;;;;;;;;;;9.90;87.60;;;;;;5109129;28;19935;-62
2023/12/26 01:40:01;;;;;;;;;;;9.90;87.60;;;;;;5092369;28;20290;-63
2023/12/26 01:42:34;;;;;;;;;;;10.00;87.70;;;;;;5109660;28;20374;-63
2023/12/26 01:45:09;;;;;;;;;;;9.90;87.50;;;;;;5108702;28;19928;-63
2023/12/26 01:47:43;;;;;;;;;;;9.90;87.50;;;;;;5109814;28;19993;-63
2023/12/26 01:50:17;;;;;;;;;;;9.90;87.50;;;;;;5108956;28;20019;-63
2023/12/26 01:52:51;;;;;;;;;;;9.90;87.50;;;;;;5104136;28;19970;-63
2023/12/26 01:55:18;;;;;;;;;;;9.90;87.50;;;;;;5099498;28;19924;-62
2023/12/26 01:57:53;;;;;;;;;;;9.90;87.50;;;;;;5088888;28;19928;-62
2023/12/26 02:00:28;;;;;;;;;;;9.90;87.40;;;;;;5098758;28;19973;-67
2023/12/26 02:03:02;;;;;;;;;;;9.90;87.40;;;;;;5098801;28;19924;-64
2023/12/26 02:05:35;;;;;;;;;;;9.90;87.50;;;;;;5107897;28;19924;-63
2023/12/26 02:08:08;;;;;;;;;;;9.90;87.30;;;;;;5075942;28;19928;-63
2023/12/26 02:10:41;;;;;;;;;;;9.90;87.30;;;;;;5073398;28;20387;-63
2023/12/26 02:13:14;;;;;;;;;;;9.90;87.30;;;;;;5088785;28;19955;-64
2023/12/26 02:15:49;;;;;;;;;;;9.90;87.30;;;;;;5107366;28;19935;-64
2023/12/26 02:18:22;;;;;;;;;;;9.90;87.30;;;;;;5107209;27;19935;-62
2023/12/26 02:20:55;;;;;;;;;;;9.90;87.30;;;;;;5108098;28;19970;-63
2023/12/26 02:23:30;;;;;;;;;;;9.90;87.30;;;;;;5091032;28;19924;-62
2023/12/26 02:26:06;;;;;;;;;;;9.90;87.20;;;;;;5106808;28;19997;-62
2023/12/26 02:28:39;;;;;;;;;;;9.90;87.30;;;;;;5106563;27;20346;-63
2023/12/26 02:31:13;;;;;;;;;;;9.90;87.30;;;;;;5073024;28;19973;-60
2023/12/26 02:33:40;;;;;;;;;;;9.90;87.50;;;;;;5101724;28;20040;-62
2023/12/26 02:36:14;;;;;;;;;;;9.90;87.60;;;;;;5090022;28;19928;-64
2023/12/26 02:38:48;;;;;;;;;;;9.90;87.80;;;;;;5098482;28;19958;-63
2023/12/26 02:41:22;;;;;;;;;;;9.90;88.00;;;;;;5106551;28;19931;-62
2023/12/26 02:43:56;;;;;;;;;;;9.90;88.20;;;;;;5109446;28;19967;-63
2023/12/26 02:46:29;;;;;;;;;;;9.80;88.40;;;;;;5108756;28;19924;-64
2023/12/26 02:49:03;;;;;;;;;;;9.80;88.50;;;;;;5088752;28;20011;-63
2023/12/26 02:51:36;;;;;;;;;;;9.80;88.60;;;;;;5108610;28;19924;-62
2023/12/26 02:54:09;;;;;;;;;;;9.80;88.60;;;;;;5109961;28;19928;-63
2023/12/26 02:56:44;;;;;;;;;;;9.80;88.60;;;;;;5107806;28;19939;-63
2023/12/26 02:59:17;;;;;;;;;;;9.70;88.70;;;;;;5108783;28;19930;-62
2023/12/26 03:01:50;;;;;;;;;;;9.70;88.80;;;;;;5108534;28;19928;-62
2023/12/26 03:04:23;;;;;;;;;;;9.70;88.90;;;;;;5110140;27;19923;-62
2023/12/26 03:06:56;;;;;;;;;;;9.70;89.10;;;;;;5106968;28;19931;-62
2023/12/26 03:09:29;;;;;;;;;;;9.70;89.30;;;;;;5077183;28;20398;-61
2023/12/26 03:12:03;;;;;;;;;;;9.70;89.40;;;;;;5094924;28;20689;-64
2023/12/26 03:14:37;;;;;;;;;;;9.70;89.50;;;;;;5088734;28;19928;-62
2023/12/26 03:17:10;;;;;;;;;;;9.70;89.50;;;;;;5106973;28;20408;-63
2023/12/26 03:19:44;;;;;;;;;;;9.70;89.50;;;;;;5112889;27;19931;-62
2023/12/26 03:22:11;;;;;;;;;;;9.70;89.40;;;;;;5119250;28;19924;-63
2023/12/26 03:24:44;;;;;;;;;;;9.70;89.40;;;;;;5109235;27;19924;-61
2023/12/26 03:27:18;;;;;;;;;;;9.60;89.20;;;;;;5107521;28;19924;-62
2023/12/26 03:29:52;;;;;;;;;;;9.60;89.10;;;;;;5091068;28;20398;-63
2023/12/26 03:32:25;;;;;;;;;;;9.70;89.00;;;;;;5087813;28;20332;-62
2023/12/26 03:34:59;;;;;;;;;;;9.70;88.90;;;;;;5108691;28;19976;-62
2023/12/26 03:37:26;;;;;;;;;;;9.70;88.80;;;;;;5107643;28;20020;-62
2023/12/26 03:39:59;;;;;;;;;;;9.70;88.70;;;;;;5105657;28;20019;-62
2023/12/26 03:42:34;;;;;;;;;;;9.60;88.60;;;;;;5107837;28;19928;-62
2023/12/26 03:45:08;;;;;;;;;;;9.60;88.40;;;;;;5106929;28;20332;-62
2023/12/26 03:47:42;;;;;;;;;;;9.60;88.30;;;;;;5083805;28;19988;-61
2023/12/26 03:50:15;;;;;;;;;;;9.60;88.20;;;;;;5106050;28;20345;-63
2023/12/26 03:52:48;;;;;;;;;;;9.70;88.20;;;;;;5106628;28;20371;-63
2023/12/26 03:55:21;;;;;;;;;;;9.60;88.00;;;;;;5085085;28;19931;-63
2023/12/26 03:57:55;;;;;;;;;;;9.60;87.90;;;;;;5089495;28;20275;-63
2023/12/26 04:00:29;;;;;;;;;;;9.60;87.80;;;;;;5089144;28;20015;-62
2023/12/26 04:03:03;;;;;;;;;;;9.60;87.60;;;;;;5080552;28;19979;-62
2023/12/26 04:05:36;;;;;;;;;;;9.60;87.40;;;;;;5086547;28;19924;-63
2023/12/26 04:08:10;;;;;;;;;;;9.60;87.30;;;;;;5084629;28;19930;-62
2023/12/26 04:10:43;;;;;;;;;;;9.70;87.20;;;;;;5103803;28;19935;-62
2023/12/26 04:13:17;;;;;;;;;;;9.70;87.20;;;;;;5085810;28;19924;-62
2023/12/26 04:15:51;;;;;;;;;;;9.60;86.80;;;;;;5085820;28;20018;-62
2023/12/26 04:18:24;;;;;;;;;;;9.60;86.80;;;;;;5103097;28;19924;-62
2023/12/26 04:21:05;;;;;;;;;;;9.60;86.70;;;;;;5083094;28;19928;-63
2023/12/26 04:23:39;;;;;;;;;;;9.60;86.80;;;;;;5104394;28;20068;-62
2023/12/26 04:26:12;;;;;;;;;;;9.60;86.50;;;;;;5085132;28;20431;-62
2023/12/26 04:28:46;;;;;;;;;;;9.60;86.40;;;;;;5085920;28;19930;-62
2023/12/26 04:31:20;;;;;;;;;;;9.60;86.40;;;;;;5085715;28;19928;-63
2023/12/26 04:33:53;;;;;;;;;;;9.60;86.30;;;;;;5085498;28;19938;-62
2023/12/26 04:36:26;;;;;;;;;;;9.60;86.20;;;;;;5087430;28;19963;-63
2023/12/26 04:38:53;;;;;;;;;;;9.60;86.10;;;;;;5085250;28;19971;-63
2023/12/26 04:41:26;;;;;;;;;;;9.60;86.00;;;;;;5091835;28;19928;-62
2023/12/26 04:44:01;;;;;;;;;;;9.60;86.10;;;;;;5089479;28;19928;-62
2023/12/26 04:46:35;;;;;;;;;;;9.60;85.90;;;;;;5082349;28;19929;-63
2023/12/26 04:49:08;;;;;;;;;;;9.60;85.80;;;;;;5106081;28;19927;-63
2023/12/26 04:51:41;;;;;;;;;;;9.60;85.90;;;;;;5084393;28;19933;-62
2023/12/26 04:54:20;;;;;;;;;;;9.70;85.80;;;;;;5089150;28;19928;-63
2023/12/26 04:56:54;;;;;;;;;;;9.60;85.80;;;;;;5084420;28;19959;-63
2023/12/26 04:59:28;;;;;;;;;;;9.60;85.70;;;;;;5105736;28;19928;-63
2023/12/26 05:02:02;;;;;;;;;;;9.70;85.70;;;;;;5085005;28;20299;-62
2023/12/26 05:04:35;;;;;;;;;;;9.60;85.80;;;;;;5067636;28;19946;-64
2023/12/26 05:07:09;;;;;;;;;;;9.70;85.90;;;;;;5072614;28;19970;-63
2023/12/26 05:09:43;;;;;;;;;;;9.60;86.00;;;;;;5069567;28;20374;-63
2023/12/26 05:12:16;;;;;;;;;;;9.60;86.30;;;;;;5072656;28;19924;-63
2023/12/26 05:14:50;;;;;;;;;;;9.60;86.50;;;;;;5067356;28;19951;-63
2023/12/26 05:17:24;;;;;;;;;;;9.50;86.80;;;;;;5087348;28;20465;-63
2023/12/26 05:19:57;;;;;;;;;;;9.50;87.00;;;;;;5106733;27;19930;-63
2023/12/26 05:22:30;;;;;;;;;;;9.50;87.20;;;;;;5085564;28;20019;-63
2023/12/26 05:25:04;;;;;;;;;;;9.50;87.20;;;;;;5090254;28;19947;-63
2023/12/26 05:27:38;;;;;;;;;;;9.50;87.30;;;;;;5081761;28;19937;-64
2023/12/26 05:30:13;;;;;;;;;;;9.50;87.30;;;;;;5088097;28;20812;-62
2023/12/26 05:32:46;;;;;;;;;;;9.50;87.30;;;;;;5087640;28;19935;-63
2023/12/26 05:35:21;;;;;;;;;;;9.50;87.40;;;;;;5089557;28;19932;-63
2023/12/26 05:37:55;;;;;;;;;;;9.50;87.40;;;;;;5090455;28;19927;-63
2023/12/26 05:40:28;;;;;;;;;;;9.40;87.40;;;;;;5086873;28;19936;-62
2023/12/26 05:42:55;;;;;;;;;;;9.40;87.50;;;;;;5087877;28;19928;-63
2023/12/26 05:45:32;;;;;;;;;;;9.50;87.40;;;;;;5086337;28;19950;-63
2023/12/26 05:48:06;;;;;;;;;;;9.50;87.50;;;;;;5108219;28;19924;-63
2023/12/26 05:50:39;;;;;;;;;;;9.40;87.30;;;;;;5107073;27;20059;-63
2023/12/26 05:53:15;;;;;;;;;;;9.50;87.30;;;;;;5083543;28;19931;-67
2023/12/26 05:55:48;;;;;;;;;;;9.50;87.20;;;;;;5106031;28;20010;-65
2023/12/26 05:58:21;;;;;;;;;;;9.50;87.10;;;;;;5084044;28;19928;-66
2023/12/26 06:00:55;;;;;;;;;;;9.50;87.00;;;;;;5088247;28;20054;-66
2023/12/26 06:03:29;;;;;;;;;;;9.40;87.00;;;;;;5115139;28;19924;-67
2023/12/26 06:06:02;;;;;;;;;;;9.40;87.00;;;;;;5103403;28;19931;-67
2023/12/26 06:08:36;;;;;;;;;;;9.40;87.00;;;;;;5092299;28;19934;-65
2023/12/26 06:11:09;;;;;;;;;;;9.50;87.00;;;;;;5086333;28;20393;-67
2023/12/26 06:13:43;;;;;;;;;;;9.50;87.00;;;;;;5107804;28;19928;-65
2023/12/26 06:16:17;;;;;;;;;;;9.50;87.00;;;;;;5108280;28;19927;-67
2023/12/26 06:18:52;;;;;;;;;;;9.50;86.90;;;;;;5090985;28;20905;-65
2023/12/26 06:21:25;;;;;;;;;;;9.50;87.00;;;;;;5078253;28;20015;-66
2023/12/26 06:24:04;;;;;;;;;;;9.50;87.00;;;;;;5089004;28;19928;-67
2023/12/26 06:26:38;;;;;;;;;;;9.50;86.90;;;;;;5090838;28;19932;-68
2023/12/26 06:29:11;;;;;;;;;;;9.50;87.00;;;;;;5088197;28;19928;-66
2023/12/26 06:31:45;;;;;;;;;;;9.50;87.10;;;;;;5110416;27;19971;-67
2023/12/26 06:34:12;;;;;;;;;;;9.50;87.20;;;;;;5091124;28;19934;-67
2023/12/26 06:36:46;;;;;;;;;;;9.50;87.20;;;;;;5086316;28;19935;-66
2023/12/26 06:39:19;;;;;;;;;;;9.50;87.20;;;;;;5083783;28;19935;-66
2023/12/26 06:41:52;;;;;;;;;;;9.40;87.20;;;;;;5090166;28;20013;-67
2023/12/26 06:44:25;;;;;;;;;;;9.50;87.30;;;;;;5087921;28;19989;-66
2023/12/26 06:46:59;;;;;;;;;;;9.40;87.40;;;;;;5067584;28;20382;-67
2023/12/26 06:49:33;;;;;;;;;;;9.40;87.40;;;;;;5079266;28;19932;-66
2023/12/26 06:52:06;;;;;;;;;;;9.40;87.40;;;;;;5096569;28;20393;-66
2023/12/26 06:54:41;;;;;;;;;;;9.50;87.40;;;;;;5086854;28;19932;-66
2023/12/26 06:57:16;;;;;;;;;;;9.40;87.40;;;;;;5082356;28;19985;-65
2023/12/26 06:59:53;;;;;;;;;;;9.40;87.40;;;;;;5088121;28;20048;-67
2023/12/26 07:02:27;;;;;;;;;;;9.40;87.40;;;;;;5088403;28;19981;-61
2023/12/26 07:05:01;;;;;;;;;;;9.50;87.50;;;;;;5087683;28;20012;-61
2023/12/26 07:07:35;;;;;;;;;;;9.40;87.50;;;;;;5081577;28;20039;-61
2023/12/26 07:10:08;;;;;;;;;;;9.50;87.50;;;;;;5086318;28;19959;-61
2023/12/26 07:12:42;;;;;;;;;;;9.40;87.50;;;;;;5087961;28;19963;-62
2023/12/26 07:15:15;;;;;;;;;;;9.50;87.40;;;;;;5106414;28;19935;-61
2023/12/26 07:17:49;;;;;;;;;;;9.50;87.40;;;;;;5107822;27;19924;-62
2023/12/26 07:20:23;;;;;;;;;;;9.50;87.40;;;;;;5098453;28;19928;-62
2023/12/26 07:22:50;;;;;;;;;;;9.50;87.40;;;;;;5075682;28;20286;-61
2023/12/26 07:25:23;;;;;;;;;;;9.40;87.50;;;;;;5096844;27;19935;-63
2023/12/26 07:27:56;;;;;;;;;;;9.50;87.40;;;;;;5090957;28;19928;-60
2023/12/26 07:30:29;;;;;;;;;;;9.50;87.40;;;;;;5085701;28;20414;-62
2023/12/26 07:33:03;;;;;;;;;;;9.50;87.40;;;;;;5087735;28;20294;-62
2023/12/26 07:35:37;;;;;;;;;;;9.50;87.40;;;;;;5107476;28;20340;-62
2023/12/26 07:38:11;;;;;;;;;;;9.50;87.40;;;;;;5096728;28;19935;-62
2023/12/26 07:40:44;;;;;;;;;;;9.40;87.40;;;;;;5101586;28;19935;-62
2023/12/26 07:43:17;;;;;;;;;;;9.50;87.50;;;;;;5107873;28;20306;-62
2023/12/26 07:45:51;;;;;;;;;;;9.50;87.50;;;;;;5103064;28;19931;-62
2023/12/26 07:48:25;;;;;;;;;;;9.50;87.50;;;;;;5095114;28;19928;-62
2023/12/26 07:50:59;;;;;;;;;;;9.50;87.50;;;;;;5086035;28;19935;-61
2023/12/26 07:53:32;;;;;;;;;;;9.50;87.50;;;;;;5087602;28;19928;-61
2023/12/26 07:56:05;;;;;;;;;;;9.50;87.60;;;;;;5087159;28;20327;-61
2023/12/26 07:58:38;;;;;;;;;;;9.50;87.40;;;;;;5087137;28;20432;-60
2023/12/26 08:01:11;;;;;;;;;;;9.50;87.50;;;;;;5087675;28;19930;-61
2023/12/26 08:03:45;;;;;;;;;;;9.50;87.40;;;;;;5086591;28;19939;-61
2023/12/26 08:06:19;;;;;;;;;;;9.50;87.30;;;;;;5085938;28;20383;-60
2023/12/26 08:08:52;;;;;;;;;;;9.50;87.30;;;;;;5107532;28;19927;-61
2023/12/26 08:11:25;;;;;;;;;;;9.60;87.20;;;;;;5107070;27;19977;-60
2023/12/26 08:13:58;;;;;;;;;;;9.60;87.20;;;;;;5107702;28;19923;-70
2023/12/26 08:16:38;;;;;;;;;;;9.60;87.10;;;;;;5102692;28;19969;-72
2023/12/26 08:19:13;;;;;;;;;;;9.60;87.20;;;;;;5103723;28;20469;-71
2023/12/26 08:21:46;;;;;;;;;;;9.60;86.90;;;;;;5102691;28;20382;-71
2023/12/26 08:24:19;;;;;;;;;;;9.70;87.00;;;;;;5086048;28;20991;-71
2023/12/26 08:26:52;;;;;;;;;;;9.70;86.90;;;;;;5087456;28;19928;-71
2023/12/26 08:29:19;;;;;;;;;;;9.60;86.80;;;;;;5085036;28;19928;-70
2023/12/26 08:31:53;;;;;;;;;;;9.70;86.90;;;;;;5087498;28;19934;-71
2023/12/26 08:34:27;;;;;;;;;;;9.70;86.90;;;;;;5105266;28;19936;-70
2023/12/26 08:37:01;;;;;;;;;;;9.70;86.90;;;;;;5107171;28;20010;-70
2023/12/26 08:39:34;;;;;;;;;;;9.60;87.00;;;;;;5106091;28;19928;-74
2023/12/26 08:42:07;;;;;;;;;;;9.60;87.00;;;;;;5111763;28;19927;-70
2023/12/26 08:44:40;;;;;;;;;;;9.60;87.00;;;;;;5114224;27;19927;-71
2023/12/26 08:47:13;;;;;;;;;;;9.60;87.00;;;;;;5073124;28;20485;-71
2023/12/26 08:49:47;;;;;;;;;;;9.60;87.00;;;;;;5089826;28;19982;-71
2023/12/26 08:52:22;;;;;;;;;;;9.60;87.00;;;;;;5109538;27;19924;-71
2023/12/26 08:54:56;;;;;;;;;;;9.60;87.00;;;;;;5110190;28;20019;-70
2023/12/26 08:57:29;;;;;;;;;;;9.60;86.90;;;;;;5110836;27;19928;-71
2023/12/26 09:00:03;;;;;;;;;;;9.70;86.90;;;;;;5109090;28;19927;-71
2023/12/26 09:02:37;;;;;;;;;;;9.70;86.90;;;;;;5110575;27;20019;-70
2023/12/26 09:05:12;;;;;;;;;;;9.70;86.90;;;;;;5109040;28;19931;-71
2023/12/26 09:07:45;;;;;;;;;;;9.70;86.80;;;;;;5103974;27;19924;-71
2023/12/26 09:10:18;;;;;;;;;;;9.70;86.80;;;;;;5092756;27;19924;-70
2023/12/26 09:12:51;;;;;;;;;;;9.70;86.80;;;;;;5092821;27;19950;-71
2023/12/26 09:15:24;;;;;;;;;;;9.70;87.00;;;;;;5089911;28;19924;-71
2023/12/26 09:17:57;;;;;;;;;;;9.70;87.30;;;;;;5087639;28;19932;-71
2023/12/26 09:20:31;;;;;;;;;;;9.70;87.60;;;;;;5090104;28;19928;-71
2023/12/26 09:23:05;;;;;;;;;;;9.70;87.90;;;;;;5089409;28;19935;-63
2023/12/26 09:25:38;;;;;;;;;;;9.70;88.10;;;;;;5087453;28;19929;-62
2023/12/26 09:28:13;;;;;;;;;;;9.70;88.20;;;;;;5088765;28;19935;-62
2023/12/26 09:30:46;;;;;;;;;;;9.70;88.50;;;;;;5088196;27;19924;-61
2023/12/26 09:33:19;;;;;;;;;;;9.70;88.50;;;;;;5089907;28;19932;-61
2023/12/26 09:35:53;;;;;;;;;;;9.70;88.70;;;;;;5089714;28;19931;-62
2023/12/26 09:38:27;;;;;;;;;;;9.70;88.80;;;;;;5109510;28;20030;-62
2023/12/26 09:41:01;;;;;;;;;;;9.70;88.90;;;;;;5106855;27;19935;-61
2023/12/26 09:43:34;;;;;;;;;;;9.70;88.90;;;;;;5109109;28;19955;-63
2023/12/26 09:46:08;;;;;;;;;;;9.70;88.90;;;;;;5108933;27;19924;-62
2023/12/26 09:48:41;;;;;;;;;;;9.70;88.80;;;;;;5091799;28;19935;-61
2023/12/26 09:51:19;;;;;;;;;;;9.70;88.60;;;;;;5091462;27;19924;-61
2023/12/26 09:53:55;;;;;;;;;;;9.70;88.60;;;;;;5091599;27;19932;-62
2023/12/26 09:56:23;;;;;;;;;;;9.70;88.60;;;;;;5091852;27;19934;-62
2023/12/26 09:58:57;;;;;;;;;;;9.70;88.60;;;;;;5091003;27;19967;-62
2023/12/26 10:01:30;;;;;;;;;;;9.70;88.70;;;;;;5092376;28;19932;-62
2023/12/26 10:04:04;;;;;;;;;;;9.70;88.90;;;;;;5074051;28;20025;-61
2023/12/26 10:06:39;;;;;;;;;;;9.70;89.00;;;;;;5108816;28;19931;-61
2023/12/26 10:09:12;;;;;;;;;;;9.70;89.10;;;;;;5122191;28;19928;-61
2023/12/26 10:11:45;;;;;;;;;;;9.70;89.20;;;;;;5108920;27;19931;-61
2023/12/26 10:14:27;;;;;;;;;;;9.70;89.20;;;;;;5109151;28;19930;-60
2023/12/26 10:17:00;;;;;;;;;;;9.70;89.20;;;;;;5108668;27;20014;-62
2023/12/26 10:19:27;;;;;;;;;;;9.70;89.30;;;;;;5109417;28;19953;-62
2023/12/26 10:22:02;;;;;;;;;;;9.70;89.20;;;;;;5109859;27;20376;-62
2023/12/26 10:24:35;;;;;;;;;;;9.70;89.10;;;;;;5105322;27;19924;-62
2023/12/26 10:27:08;;;;;;;;;;;9.70;89.10;;;;;;5104693;27;19924;-61
2023/12/26 10:29:41;;;;;;;;;;;9.70;89.10;;;;;;5097300;28;19931;-64
2023/12/26 10:32:14;;;;;;;;;;;9.70;89.30;;;;;;5107419;27;20018;-71
2023/12/26 10:34:47;;;;;;;;;;;9.70;89.30;;;;;;5107551;28;20550;-71
2023/12/26 10:37:22;;;;;;;;;;;9.70;89.30;;;;;;5107814;27;19924;-71
2023/12/26 10:39:55;;;;;;;;;;;9.70;89.20;;;;;;5107377;28;20371;-70
2023/12/26 10:42:22;;;;;;;;;;;9.70;89.20;;;;;;5107230;27;19927;-72
2023/12/26 10:44:58;;;;;;;;;;;9.70;89.10;;;;;;5106473;28;20018;-71
2023/12/26 10:47:32;;;;;;;;;;;9.80;89.10;;;;;;5107351;28;19974;-71
2023/12/26 10:50:06;;;;;;;;;;;9.80;88.90;;;;;;5104363;28;20007;-70
2023/12/26 10:52:41;;;;;;;;;;;9.90;88.90;;;;;;5107997;28;19928;-68
2023/12/26 10:55:33;;;;;;;;;;;9.90;88.70;;;;;;5109141;28;19923;-71
2023/12/26 10:58:19;;;;;;;;;;;9.80;88.70;;;;;;5103301;28;20035;-71
2023/12/26 11:00:51;;;;;;;;;;;9.90;88.80;;;;;;5099349;28;19927;-71
2023/12/26 13:53:52;;;;;;;;;;;10.30;86.50;;;;;;5108932;28;19920;-67
2023/12/26 13:56:26;;;;;;;;;;;10.30;86.40;;;;;;5090533;28;20472;-67
2023/12/26 13:58:59;;;;;;;;;;;10.30;86.30;;;;;;5091850;28;19932;-67
2023/12/26 14:01:32;;;;;;;;;;;10.30;86.30;;;;;;5102406;28;19935;-67
2023/12/26 14:04:05;;;;;;;;;;;10.30;86.30;;;;;;5108624;28;19934;-62
2023/12/26 14:06:38;;;;;;;;;;;10.30;86.30;;;;;;5110132;28;19932;-62
2023/12/26 14:09:13;;;;;;;;;;;10.30;86.40;;;;;;5110070;28;19927;-62
2023/12/26 14:11:46;;;;;;;;;;;10.20;86.50;;;;;;5109483;28;19928;-61
2023/12/26 14:14:20;;;;;;;;;;;10.20;86.40;;;;;;5107323;28;19932;-62
2023/12/26 14:16:53;;;;;;;;;;;10.20;86.40;;;;;;5109130;28;19932;-61
2023/12/26 14:19:25;;;;;;;;;;;10.20;86.40;;;;;;5107636;28;19981;-62
2023/12/26 14:21:58;;;;;;;;;;;10.20;86.20;;;;;;5092398;28;19934;-62
2023/12/26 14:24:32;;;;;;;;;;;10.10;86.30;;;;;;5108424;28;19930;-62
2023/12/26 14:27:08;;;;;;;;;;;10.10;86.20;;;;;;5088816;28;19932;-61
2023/12/26 14:29:41;;;;;;;;;;;10.10;86.30;;;;;;5086757;28;19936;-60
2023/12/26 14:32:16;;;;;;;;;;;10.10;86.50;;;;;;5087679;28;19967;-61
2023/12/26 14:34:49;;;;;;;;;;;10.00;86.40;;;;;;5088479;28;20014;-61
2023/12/26 14:37:22;;;;;;;;;;;10.00;86.50;;;;;;5087242;28;20011;-61
2023/12/26 14:39:56;;;;;;;;;;;9.90;86.40;;;;;;5088046;28;19959;-65
2023/12/26 14:42:30;;;;;;;;;;;9.90;86.60;;;;;;5078179;28;20338;-62
2023/12/26 14:45:03;;;;;;;;;;;9.90;86.60;;;;;;5088018;28;19928;-60
2023/12/26 14:47:36;;;;;;;;;;;9.90;86.70;;;;;;5086209;28;19925;-60
2023/12/26 14:50:09;;;;;;;;;;;9.80;86.60;;;;;;5087094;28;19943;-61
2023/12/26 14:52:42;;;;;;;;;;;9.80;86.70;;;;;;5088927;28;19924;-61
2023/12/26 14:55:17;;;;;;;;;;;9.80;86.80;;;;;;5087631;28;19932;-61
2023/12/26 14:57:50;;;;;;;;;;;9.80;86.90;;;;;;5088646;28;19928;-62
2023/12/26 15:00:23;;;;;;;;;;;9.80;86.80;;;;;;5106682;28;19927;-61
2023/12/26 15:02:59;;;;;;;;;;;9.80;86.70;;;;;;5109578;28;19935;-61
2023/12/26 15:05:34;;;;;;;;;;;9.70;86.80;;;;;;5107782;28;19976;-61
2023/12/26 15:08:07;;;;;;;;;;;9.70;86.80;;;;;;5108963;28;20366;-62
2023/12/26 15:10:42;;;;;;;;;;;9.70;86.80;;;;;;5107359;28;20007;-62
2023/12/26 15:13:15;;;;;;;;;;;9.70;86.70;;;;;;5107253;28;19940;-62
2023/12/26 15:15:48;;;;;;;;;;;9.70;86.80;;;;;;5109268;28;19928;-62
2023/12/26 15:18:21;;;;;;;;;;;9.70;86.90;;;;;;5107619;28;19930;-61
2023/12/26 15:20:54;;;;;;;;;;;9.70;86.90;;;;;;5107886;28;20023;-62
2023/12/26 15:23:27;;;;;;;;;;;9.70;86.90;;;;;;5107906;28;19931;-62
2023/12/26 15:26:02;;;;;;;;;;;9.70;86.90;;;;;;5108432;27;19924;-62
2023/12/26 15:28:35;;;;;;;;;;;9.70;87.00;;;;;;5107810;28;19927;-62
2023/12/26 15:31:11;;;;;;;;;;;9.70;87.00;;;;;;5106323;28;19936;-61
2023/12/26 15:33:46;;;;;;;;;;;9.70;87.10;;;;;;5107341;28;20023;-62
2023/12/26 15:36:20;;;;;;;;;;;9.70;87.00;;;;;;5106588;28;20030;-60
2023/12/26 15:38:54;;;;;;;;;;;9.70;86.90;;;;;;5106889;27;19950;-61
2023/12/26 15:41:29;;;;;;;;;;;9.70;86.70;;;;;;5087545;28;19955;-62
2023/12/26 15:44:02;;;;;;;;;;;9.70;86.40;;;;;;5085206;28;20486;-62
2023/12/26 15:46:35;;;;;;;;;;;9.60;86.40;;;;;;5100631;28;19928;-60
2023/12/26 15:49:08;;;;;;;;;;;9.60;86.20;;;;;;5104904;28;20073;-62
2023/12/26 15:51:42;;;;;;;;;;;9.60;86.30;;;;;;5106544;28;19936;-63
2023/12/26 15:54:16;;;;;;;;;;;9.60;86.20;;;;;;5106798;28;19932;-63
2023/12/26 15:56:51;;;;;;;;;;;9.60;86.00;;;;;;5106316;28;19973;-63
2023/12/26 15:59:24;;;;;;;;;;;9.50;86.00;;;;;;5106763;27;19927;-63
2023/12/26 16:01:57;;;;;;;;;;;9.50;85.80;;;;;;5104019;28;20377;-63
2023/12/26 16:04:30;;;;;;;;;;;9.50;85.50;;;;;;5102735;28;19928;-62
2023/12/26 16:07:03;;;;;;;;;;;9.50;85.10;;;;;;5083480;28;19973;-64
2023/12/26 16:09:37;;;;;;;;;;;9.40;85.00;;;;;;5088426;28;20027;-63
2023/12/26 16:12:12;;;;;;;;;;;9.40;84.60;;;;;;5086371;28;20023;-62
2023/12/26 16:14:45;;;;;;;;;;;9.40;84.40;;;;;;5088470;28;19928;-63
2023/12/26 16:17:18;;;;;;;;;;;9.40;83.70;;;;;;5087790;28;19927;-63
2023/12/26 16:19:51;;;;;;;;;;;9.40;84.00;;;;;;5108086;28;19927;-63
2023/12/26 16:22:24;;;;;;;;;;;9.40;84.00;;;;;;5106690;28;19935;-71
2023/12/26 16:24:57;;;;;;;;;;;9.40;84.20;;;;;;5105487;28;19931;-70
2023/12/26 16:27:26;;;;;;;;;;;9.40;83.30;;;;;;5107207;28;20005;-71
2023/12/26 16:29:59;;;;;;;;;;;9.40;83.10;;;;;;5105393;28;20378;-71
2023/12/26 16:32:33;;;;;;;;;;;9.30;83.20;;;;;;5106327;28;20378;-72
2023/12/26 16:35:07;;;;;;;;;;;9.40;83.70;;;;;;5106257;28;20410;-70
2023/12/26 16:37:40;;;;;;;;;;;9.30;83.30;;;;;;5106521;28;19960;-69
2023/12/26 16:40:14;;;;;;;;;;;9.30;83.50;;;;;;5106210;28;19931;-72
2023/12/26 16:42:49;;;;;;;;;;;9.30;83.80;;;;;;5100486;28;19923;-71
2023/12/26 16:45:22;;;;;;;;;;;9.30;83.70;;;;;;5104867;28;19968;-71
2023/12/26 16:47:55;;;;;;;;;;;9.20;83.50;;;;;;5104121;28;19923;-70
2023/12/26 16:50:28;;;;;;;;;;;9.20;83.80;;;;;;5105439;28;19956;-71
2023/12/26 16:53:01;;;;;;;;;;;9.20;83.60;;;;;;5105277;28;20409;-70
2023/12/26 16:55:34;;;;;;;;;;;9.20;84.00;;;;;;5107936;27;19928;-72
2023/12/26 16:58:09;;;;;;;;;;;9.20;83.90;;;;;;5072318;28;19932;-71
2023/12/26 17:00:42;;;;;;;;;;;9.30;84.10;;;;;;5101660;28;19932;-71
2023/12/26 17:03:15;;;;;;;;;;;9.20;84.10;;;;;;5109001;28;20433;-71
2023/12/26 17:05:48;;;;;;;;;;;9.20;84.10;;;;;;5109153;28;19940;-71
2023/12/26 17:08:21;;;;;;;;;;;9.20;84.20;;;;;;5108442;28;19927;-71
2023/12/26 17:10:54;;;;;;;;;;;9.20;84.30;;;;;;5109182;28;19932;-71
2023/12/26 17:13:29;;;;;;;;;;;9.20;84.20;;;;;;5107973;28;19928;-71
2023/12/26 17:16:02;;;;;;;;;;;9.20;84.30;;;;;;5095960;28;20279;-70
2023/12/26 17:18:35;;;;;;;;;;;9.20;84.30;;;;;;5088700;28;19924;-70
2023/12/26 17:21:09;;;;;;;;;;;9.20;84.50;;;;;;5088368;28;19929;-71
2023/12/26 17:23:42;;;;;;;;;;;9.20;84.50;;;;;;5090085;28;19928;-71
2023/12/26 17:26:15;;;;;;;;;;;9.20;84.50;;;;;;5089176;28;19967;-71
2023/12/26 17:28:54;;;;;;;;;;;9.20;84.60;;;;;;5088656;28;19960;-71
2023/12/26 17:31:27;;;;;;;;;;;9.20;84.40;;;;;;5110183;27;20018;-70
2023/12/26 17:34:01;;;;;;;;;;;9.10;84.50;;;;;;5107490;28;19932;-72
2023/12/26 17:36:34;;;;;;;;;;;9.10;84.50;;;;;;5091896;28;19931;-71
2023/12/26 17:39:07;;;;;;;;;;;9.00;84.60;;;;;;5090931;28;20015;-70
2023/12/26 17:41:40;;;;;;;;;;;9.00;84.50;;;;;;5093055;28;19935;-72
2023/12/26 17:44:16;;;;;;;;;;;8.90;84.30;;;;;;5090379;28;19924;-71
2023/12/26 17:46:50;;;;;;;;;;;8.90;84.30;;;;;;5092016;28;19931;-72
2023/12/26 17:49:24;;;;;;;;;;;8.80;83.90;;;;;;5106942;28;20024;-71
2023/12/26 17:51:58;;;;;;;;;;;8.90;83.70;;;;;;5107417;28;19928;-71
2023/12/26 17:54:31;;;;;;;;;;;8.90;83.20;;;;;;5109609;28;20397;-71